x

Lake Winnipeg North (45144) Wave Buoy

5:00am - Wed 20th Sep 2017 All times are UTC.

  • Sig Wave height 6.9ft
  • Peak Period 5s
  • Wind
    29mph, 36mph gusts
  • Sea Temp 60°f
  • Air Temp 60°f
  • Sea Pressure 998.5mb

More Historic Weather Station data

Upgrade to MSW Pro to gain access to the past 30 days of data for over 8000 Wavebouys and Weather Stations around the globe.

Join

Comparision Forecast

View Surf forecast
   
Wed 09/20 5:00am 7ft 5s 29 36 mph 998.5mb 60f 60f
4:00am 7ft 6s 31 36 mph 999.3mb 60f 60f
3:00am 7ft 5s 31 38 mph 1000.7mb 60f 60f
2:00am 6ft 5s 31 36 mph 1001.5mb 60f 60f
1:00am 5ft 5s 27 34 mph 1002.2mb 60f 59f
12:00am 4.5ft 4s 27 31 mph 1002.8mb 60f 61f
Tue 09/19 11:00pm 4ft 5s 25 29 mph 1002.9mb 60f 61f
10:00pm 4ft 5s 20 25 mph 1004.8mb 60f 62f
9:00pm 4ft 5s 20 25 mph 1005.4mb 60f 61f
8:00pm 4.5ft 5s 22 27 mph 1006.2mb 60f 60f
7:00pm 4.5ft 5s 22 27 mph 1007.5mb 60f 60f
6:00pm 4.5ft 5s 22 27 mph 1008.5mb 60f 59f
5:00pm 4.5ft 5s 22 27 mph 1009.2mb 60f 57f
4:00pm 4.5ft 5s 22 25 mph 1009.8mb 60f 56f
3:00pm 4.5ft 5s 25 29 mph 1009.8mb 60f 55f
2:00pm 4.5ft 5s 22 27 mph 1010.6mb 60f 55f
1:00pm 4.5ft 5s 25 29 mph 1011mb 60f 55f
12:00pm  -   -  22
mph
1010.9mb - 56f
11:00am 4ft 5s 22 27 mph 1011mb 60f 55f
10:00am 4ft 5s 22 27 mph 1011.5mb 60f 55f
9:00am 3.5ft 4s 22 27 mph 1011.9mb 60f 56f
8:00am 2.5ft 4s 20 25 mph 1012.3mb 60f 56f
7:00am 2.5ft 4s 18 22 mph 1012.4mb 60f 56f
6:00am 1.6ft 3s 16 20 mph 1012.8mb 60f 55f
5:00am 1.6ft 3s 16 20 mph 1012.8mb 60f 55f
4:00am 1.3ft 3s 13 18 mph 1012.9mb 60f 56f
3:00am 1.3ft 3s 13 18 mph 1013.1mb 61f 55f
2:00am 1ft 2s 13 18 mph 1013.2mb 61f 55f
1:00am 1ft 2s 11 13 mph 1013mb 61f 54f
12:00am 0.7ft 2s 11 13 mph 1013.1mb 61f 55f
Mon 09/18 11:00pm 0.7ft 2s 9 11 mph 1013.1mb 61f 55f
10:00pm 0.7ft 3s 9 11 mph 1013mb 61f 55f
9:00pm 1ft 3s 7 9 mph 1013.3mb 61f 55f
8:00pm 1.3ft 3s 9 9 mph 1013.7mb 61f 54f
7:00pm 1.6ft 4s 9 13 mph 1014.1mb 61f 53f
6:00pm 2ft 4s 11 13 mph 1014.1mb 61f 53f
5:00pm 2ft 4s 13 18 mph 1014.1mb 61f 52f
4:00pm 2ft 4s 13 18 mph 1014.1mb 61f 52f
3:00pm 2ft 4s 13 18 mph 1013.8mb 61f 51f
2:00pm 1.6ft 3s 18 20 mph 1013.5mb 60f 51f
1:00pm 1.3ft 3s 16 18 mph 1013.3mb 60f 51f
12:00pm 1ft 3s 13 18 mph 1013.2mb 60f 51f
11:00am 1.3ft 3s 11 16 mph 1013.2mb 60f 50f
10:00am 1.6ft 3s 11 16 mph 1013.5mb 60f 49f
9:00am 2ft 4s 16 20 mph 1013.7mb 61f 48f
8:00am  -   -  18
mph
- - 48f
7:00am 2.5ft 4s 16 20 mph 1013.6mb 61f 48f
6:00am 3ft 4s 16 20 mph 1013.5mb 61f 47f
5:00am 3.5ft 5s 18 22 mph 1013.2mb 61f 47f
4:00am 3.5ft 5s 22 27 mph 1013.5mb 61f 46f
3:00am 3.5ft 4s 20 25 mph 1013.3mb 61f 46f
2:00am 3.5ft 4s 20 25 mph 1013.1mb 61f 46f
1:00am 3.5ft 4s 20 25 mph 1013.1mb 61f 46f
12:00am 4ft 5s 18 22 mph 1013mb 61f 46f
Sun 09/17 11:00pm 4ft 4s 20 25 mph 1012.6mb 61f 46f
10:00pm 4.5ft 5s 20 27 mph 1012.3mb 61f 46f
7:00pm 4ft 5s 20 25 mph 1012.3mb 61f 46f
6:00pm 4ft 5s 20 27 mph 1012.4mb 61f 46f
5:00pm 4.5ft 5s 20
mph
1012.9mb 61f 45f
4:00pm 4.5ft 5s 22 27 mph 1013mb 61f 46f
3:00pm 4ft 5s 22 29 mph 1013.2mb 61f 46f
2:00pm 4ft 4s 22 29 mph 1013.6mb 61f 45f
1:00pm 3.5ft 4s 25 31 mph 1014mb 62f 47f
12:00pm 3ft 4s 25 31 mph 1014.3mb 62f 49f
11:00am 3ft 4s 18 22 mph 1014.7mb 62f 51f
10:00am 2.5ft 4s 20 27 mph 1015mb 62f 51f
9:00am 3ft 4s 18 22 mph 1015.9mb 62f 49f
8:00am 3ft 4s 18 22 mph 1016.1mb 62f 52f
7:00am 3ft 5s 18 25 mph 1016.5mb 62f 54f
6:00am 3.5ft 4s 18 25 mph 1017.2mb 62f 54f
5:00am 3ft 4s 18 25 mph 1017.9mb 62f 55f
4:00am 3ft 4s 20 25 mph 1018.6mb 62f 55f
3:00am 3ft 4s 18 22 mph 1019.2mb 62f 56f
2:00am 3.5ft 4s 18 22 mph 1019.8mb 62f 56f
1:00am 3ft 4s 18 22 mph 1019.9mb 62f 57f
12:00am 2.5ft 4s 18 25 mph 1019.8mb 62f 57f
Sat 09/16 11:00pm 2.5ft 4s 18 22 mph 1020.1mb 62f 57f
10:00pm 2ft 3s 18 20 mph 1020.8mb 62f 56f
9:00pm 1.6ft 4s 13 22 mph 1021.6mb 62f 56f
8:00pm 2.5ft 4s 13 18 mph 1022.6mb 62f 55f
7:00pm 2.5ft 4s 16 18 mph 1023.2mb 62f 55f
6:00pm 2.5ft 4s 16 18 mph 1023.7mb 62f 54f
5:00pm 2.5ft 4s 13 18 mph 1023.7mb 62f 53f
4:00pm 3.5ft 4s 18 20 mph 1023.8mb 62f 53f
3:00pm 3.5ft 4s 18 20 mph 1024.2mb 62f 53f
2:00pm 3.5ft 4s 18 22 mph 1023.7mb 62f 52f
1:00pm 3.5ft 4s 20 22 mph 1023.8mb 62f 53f
12:00pm 3ft 4s 20 25 mph 1023.5mb 62f 52f
11:00am 2.5ft 4s 18 22 mph 1024mb 62f 52f
10:00am 2.5ft 4s 16 20 mph 1024.4mb 62f 52f
9:00am 3ft 4s 16 18 mph 1024.3mb 62f 52f
8:00am 3ft 4s 18 20 mph 1024.2mb 62f 52f